createdAt,value
2018-06-08T00:00:18.557Z,23.40
2018-06-08T00:01:22.809Z,23.40
2018-06-08T00:02:26.223Z,23.40
2018-06-08T00:03:29.607Z,23.40
2018-06-08T00:04:32.991Z,23.40
2018-06-08T00:05:37.482Z,23.40
2018-06-08T00:06:40.895Z,23.40
2018-06-08T00:07:44.293Z,23.40
2018-06-08T00:08:47.667Z,23.40
2018-06-08T00:09:51.055Z,23.40
2018-06-08T00:11:58.284Z,23.40
2018-06-08T00:13:01.670Z,23.40
2018-06-08T00:14:05.135Z,23.40
2018-06-08T00:15:09.692Z,23.40
2018-06-08T00:17:16.947Z,23.30
2018-06-08T00:18:20.316Z,23.30
2018-06-08T00:19:23.705Z,23.30
2018-06-08T00:20:28.183Z,23.30
2018-06-08T00:21:31.612Z,23.30
2018-06-08T00:22:35.016Z,23.30
2018-06-08T00:23:38.403Z,23.30
2018-06-08T00:24:41.793Z,23.30
2018-06-08T00:25:46.187Z,23.30
2018-06-08T00:26:49.611Z,23.30
2018-06-08T00:27:53.037Z,23.20
2018-06-08T00:28:56.419Z,23.30
2018-06-08T00:29:59.809Z,23.30
2018-06-08T00:31:04.489Z,23.30
2018-06-08T00:32:07.891Z,23.30
2018-06-08T00:33:11.291Z,23.30
2018-06-08T00:34:14.677Z,23.30
2018-06-08T00:35:19.045Z,23.30
2018-06-08T00:37:26.439Z,23.30
2018-06-08T00:38:29.839Z,23.30
2018-06-08T00:40:37.585Z,23.30
2018-06-08T00:41:41.007Z,23.30
2018-06-08T00:42:44.391Z,23.20
2018-06-08T00:43:47.795Z,23.30
2018-06-08T00:50:09.434Z,23.10
2018-06-08T00:51:14.421Z,23.10
2018-06-08T00:52:17.835Z,23.10
2018-06-08T00:53:21.219Z,23.20
2018-06-08T00:54:24.615Z,23.20
2018-06-08T00:55:28.994Z,23.20
2018-06-08T00:56:43.784Z,23.20
2018-06-08T00:59:53.355Z,23.20
2018-06-08T01:00:57.943Z,23.20
2018-06-08T01:02:01.367Z,23.20
2018-06-08T01:03:04.812Z,23.20
2018-06-08T01:04:08.211Z,23.20
2018-06-08T01:06:17.156Z,23.20
2018-06-08T01:07:20.583Z,23.20
2018-06-08T01:08:23.967Z,23.20
2018-06-08T01:09:27.675Z,23.20
2018-06-08T01:10:32.541Z,23.20
2018-06-08T01:11:35.968Z,23.20
2018-06-08T01:12:39.355Z,23.20
2018-06-08T01:13:42.739Z,23.10
2018-06-08T01:14:46.139Z,23.10
2018-06-08T01:15:50.620Z,23.10
2018-06-08T01:16:54.027Z,23.10
2018-06-08T01:17:57.411Z,23.10
2018-06-08T01:19:00.821Z,23.10
2018-06-08T01:20:04.887Z,23.00
2018-06-08T01:21:09.367Z,23.00
2018-06-08T01:22:12.787Z,23.00
2018-06-08T01:23:16.172Z,23.00
2018-06-08T01:24:19.592Z,22.90
2018-06-08T01:25:23.988Z,22.90
2018-06-08T01:26:28.467Z,22.90
2018-06-08T01:27:31.848Z,22.90
2018-06-08T01:28:35.231Z,22.90
2018-06-08T01:29:38.698Z,22.90
2018-06-08T01:30:43.226Z,22.80
2018-06-08T01:31:46.643Z,22.80
2018-06-08T01:32:50.039Z,22.80
2018-06-08T01:33:53.415Z,22.80
2018-06-08T01:34:56.819Z,22.80
2018-06-08T01:36:01.343Z,22.80
2018-06-08T01:37:04.759Z,22.80
2018-06-08T01:38:08.146Z,22.80
2018-06-08T01:39:11.519Z,22.80
2018-06-08T01:40:16.004Z,22.80
2018-06-08T01:41:21.289Z,22.80
2018-06-08T01:42:24.735Z,22.80
2018-06-08T01:43:28.130Z,22.80
2018-06-08T01:44:31.515Z,22.80
2018-06-08T01:45:36.582Z,22.80
2018-06-08T01:46:39.999Z,22.80
2018-06-08T01:47:43.430Z,22.80
2018-06-08T01:48:46.807Z,22.80
2018-06-08T01:49:50.197Z,22.80
2018-06-08T01:50:54.746Z,22.80
2018-06-08T01:51:58.163Z,22.80
2018-06-08T01:53:01.543Z,22.80
2018-06-08T01:54:04.943Z,22.80
2018-06-08T01:55:09.398Z,22.90
2018-06-08T01:56:13.878Z,22.90
2018-06-08T01:57:17.283Z,22.90
2018-06-08T01:58:20.667Z,22.90
2018-06-08T01:59:24.049Z,22.90
2018-06-08T02:00:28.585Z,22.90
2018-06-08T02:01:31.999Z,22.90
2018-06-08T02:02:35.385Z,22.90
2018-06-08T02:03:38.770Z,22.90
2018-06-08T02:04:42.156Z,23.00
2018-06-08T02:05:46.552Z,23.00
2018-06-08T02:06:50.000Z,23.00
2018-06-08T02:07:53.392Z,23.00
2018-06-08T02:08:56.823Z,23.00
2018-06-08T02:10:00.215Z,23.00
2018-06-08T02:11:04.652Z,23.00
2018-06-08T02:12:08.089Z,23.00
2018-06-08T02:13:11.476Z,23.00
2018-06-08T02:14:14.859Z,23.00
2018-06-08T02:15:19.352Z,23.00
2018-06-08T02:16:23.588Z,23.00
2018-06-08T02:17:27.030Z,23.00
2018-06-08T02:18:30.445Z,23.00
2018-06-08T02:19:33.830Z,23.00
2018-06-08T02:20:38.183Z,23.00
2018-06-08T02:22:51.346Z,22.90
2018-06-08T02:23:54.763Z,22.90
2018-06-08T02:24:58.139Z,22.90
2018-06-08T02:26:02.089Z,22.90
2018-06-08T02:27:05.479Z,22.90
2018-06-08T02:29:12.075Z,22.90
2018-06-08T02:30:16.416Z,22.90
2018-06-08T02:34:30.128Z,23.00
2018-06-08T02:35:34.614Z,23.00
2018-06-08T02:36:38.016Z,23.00
2018-06-08T02:37:41.447Z,22.90
2018-06-08T02:38:44.849Z,23.00
2018-06-08T02:39:48.240Z,22.90
2018-06-08T02:40:52.729Z,22.90
2018-06-08T02:44:02.341Z,22.90
2018-06-08T02:45:06.730Z,22.90
2018-06-08T02:46:11.216Z,22.90
2018-06-08T02:47:14.620Z,22.90
2018-06-08T02:48:18.028Z,22.90
2018-06-08T02:49:21.411Z,22.90
2018-06-08T02:50:25.871Z,22.90
2018-06-08T02:51:29.992Z,22.90
2018-06-08T02:52:33.376Z,22.90
2018-06-08T02:53:36.780Z,22.90
2018-06-08T02:54:40.175Z,22.90
2018-06-08T02:55:44.577Z,22.90
2018-06-08T02:56:48.004Z,22.90
2018-06-08T02:57:51.397Z,22.90
2018-06-08T02:58:54.807Z,22.80
2018-06-08T02:59:58.199Z,22.80
2018-06-08T03:01:02.533Z,22.80
2018-06-08T03:02:05.952Z,22.70
2018-06-08T03:03:09.336Z,22.70
2018-06-08T03:04:12.738Z,22.70
2018-06-08T03:05:17.206Z,22.60
2018-06-08T03:06:22.264Z,22.60
2018-06-08T03:07:25.695Z,22.60
2018-06-08T03:08:29.100Z,22.50
2018-06-08T03:09:32.496Z,22.50
2018-06-08T03:10:37.066Z,22.50
2018-06-08T03:13:46.652Z,22.50
2018-06-08T03:14:50.068Z,22.50
2018-06-08T03:15:54.916Z,22.50
2018-06-08T03:16:58.340Z,22.50
2018-06-08T03:19:04.818Z,22.50
2018-06-08T03:20:09.609Z,22.50
2018-06-08T03:21:14.620Z,22.50
2018-06-08T03:22:18.031Z,22.50
2018-06-08T03:23:21.419Z,22.50
2018-06-08T03:24:24.811Z,22.50
2018-06-08T03:25:29.296Z,22.50
2018-06-08T03:26:32.740Z,22.50
2018-06-08T03:27:36.132Z,22.40
2018-06-08T03:28:39.511Z,22.40
2018-06-08T03:29:42.892Z,22.40
2018-06-08T03:30:47.345Z,22.50
2018-06-08T03:31:50.786Z,22.40
2018-06-08T03:32:54.167Z,22.40
2018-06-08T03:33:57.557Z,22.40
2018-06-08T03:35:00.947Z,22.40
2018-06-08T03:36:06.078Z,22.50
2018-06-08T03:37:09.500Z,22.50
2018-06-08T03:38:12.879Z,22.40
2018-06-08T03:39:16.275Z,22.40
2018-06-08T03:40:21.540Z,22.50
2018-06-08T03:41:25.649Z,22.50
2018-06-08T03:42:29.061Z,22.40
2018-06-08T03:43:32.443Z,22.40
2018-06-08T03:44:35.827Z,22.50
2018-06-08T03:45:40.187Z,22.50
2018-06-08T03:46:43.623Z,22.40
2018-06-08T03:47:47.017Z,22.50
2018-06-08T03:48:50.403Z,22.50
2018-06-08T03:49:53.795Z,22.50
2018-06-08T03:50:58.208Z,22.50
2018-06-08T03:53:05.041Z,22.50
2018-06-08T03:54:08.424Z,22.50
2018-06-08T03:55:13.728Z,22.50
2018-06-08T03:56:18.063Z,22.50
2018-06-08T03:57:21.498Z,22.50
2018-06-08T03:58:24.880Z,22.50
2018-06-08T03:59:28.259Z,22.60
2018-06-08T04:00:32.684Z,22.60
2018-06-08T04:03:42.288Z,22.50
2018-06-08T04:04:45.667Z,22.60
2018-06-08T04:05:50.050Z,22.60
2018-06-08T04:06:53.449Z,22.60
2018-06-08T04:07:56.851Z,22.50
2018-06-08T04:09:00.263Z,22.60
2018-06-08T04:10:04.235Z,22.60
2018-06-08T04:11:10.294Z,22.50
2018-06-08T04:12:15.012Z,22.60
2018-06-08T04:13:18.423Z,22.60
2018-06-08T04:14:21.811Z,22.50
2018-06-08T04:15:26.304Z,22.60
2018-06-08T04:16:30.221Z,22.60
2018-06-08T04:17:33.615Z,22.60
2018-06-08T04:18:37.024Z,22.60
2018-06-08T04:19:40.408Z,22.60
2018-06-08T04:20:44.887Z,22.60
2018-06-08T04:21:48.303Z,22.60
2018-06-08T04:22:51.679Z,22.70
2018-06-08T04:23:55.074Z,22.70
2018-06-08T04:27:05.235Z,22.70
2018-06-08T04:28:08.619Z,22.70
2018-06-08T04:29:12.007Z,22.70
2018-06-08T04:30:16.473Z,22.70
2018-06-08T04:31:20.983Z,22.70
2018-06-08T04:32:24.393Z,22.70
2018-06-08T04:33:27.767Z,22.70
2018-06-08T04:34:31.199Z,22.70
2018-06-08T04:36:38.904Z,22.70
2018-06-08T04:37:42.297Z,22.70
2018-06-08T04:38:45.683Z,22.70
2018-06-08T04:39:49.099Z,22.70
2018-06-08T04:40:53.556Z,22.70
2018-06-08T04:41:56.967Z,22.70
2018-06-08T04:43:00.391Z,22.70
2018-06-08T04:44:03.999Z,22.70
2018-06-08T04:45:08.356Z,22.70
2018-06-08T04:46:12.738Z,22.70
2018-06-08T04:47:16.140Z,22.70
2018-06-08T04:48:19.535Z,22.60
2018-06-08T04:49:22.939Z,22.60
2018-06-08T04:50:27.984Z,22.60
2018-06-08T04:51:31.397Z,22.60
2018-06-08T04:52:34.943Z,22.60
2018-06-08T04:53:38.323Z,22.60
2018-06-08T04:54:41.725Z,22.60
2018-06-08T04:55:46.146Z,22.60
2018-06-08T04:56:49.633Z,22.60
2018-06-08T04:57:53.031Z,22.60
2018-06-08T04:58:56.411Z,22.60
2018-06-08T04:59:59.807Z,22.60
2018-06-08T05:01:04.462Z,22.60
2018-06-08T05:02:07.900Z,22.60
2018-06-08T05:03:11.287Z,22.60
2018-06-08T05:04:14.679Z,22.60
2018-06-08T05:05:19.271Z,22.60
2018-06-08T05:06:23.699Z,22.60
2018-06-08T05:07:27.141Z,22.60
2018-06-08T05:08:30.531Z,22.60
2018-06-08T05:09:33.927Z,22.50
2018-06-08T05:10:38.396Z,22.60
2018-06-08T05:11:41.835Z,22.60
2018-06-08T05:12:45.224Z,22.60
2018-06-08T05:13:48.639Z,22.60
2018-06-08T05:14:52.027Z,22.60
2018-06-08T05:15:56.443Z,22.70
2018-06-08T05:16:59.891Z,22.60
2018-06-08T05:18:03.292Z,22.60
2018-06-08T05:19:06.679Z,22.60
2018-06-08T05:20:11.202Z,22.60
2018-06-08T05:21:15.876Z,22.60
2018-06-08T05:22:19.323Z,22.60
2018-06-08T05:25:30.566Z,22.70
2018-06-08T05:26:33.975Z,22.70
2018-06-08T05:27:37.380Z,22.70
2018-06-08T05:28:40.763Z,22.70
2018-06-08T05:29:44.164Z,22.70
2018-06-08T05:30:48.724Z,22.70
2018-06-08T05:31:52.176Z,22.70
2018-06-08T05:32:55.564Z,22.70
2018-06-08T05:33:58.955Z,22.80
2018-06-08T05:35:02.359Z,22.80
2018-06-08T05:36:06.860Z,22.80
2018-06-08T05:37:10.244Z,22.80
2018-06-08T05:38:13.667Z,22.80
2018-06-08T05:39:17.055Z,22.80
2018-06-08T05:40:22.116Z,22.80
2018-06-08T05:41:26.500Z,22.80
2018-06-08T05:42:29.948Z,22.80
2018-06-08T05:43:33.344Z,22.80
2018-06-08T05:44:36.770Z,22.90
2018-06-08T05:46:44.096Z,22.90
2018-06-08T05:47:47.495Z,22.90
2018-06-08T05:48:50.892Z,22.90
2018-06-08T05:49:54.280Z,22.90
2018-06-08T05:50:58.618Z,22.90
2018-06-08T05:52:02.051Z,23.00
2018-06-08T05:53:05.472Z,22.90
2018-06-08T05:54:08.902Z,23.00
2018-06-08T05:55:13.479Z,23.00
2018-06-08T05:56:18.165Z,23.00
2018-06-08T05:57:21.664Z,23.00
2018-06-08T05:58:25.052Z,23.00
2018-06-08T05:59:28.463Z,23.00
2018-06-08T06:00:32.928Z,23.00
2018-06-08T06:01:36.344Z,23.00
2018-06-08T06:02:39.759Z,23.00
2018-06-08T06:05:50.402Z,23.00
2018-06-08T06:06:53.851Z,23.10
2018-06-08T06:07:57.235Z,23.10
2018-06-08T06:09:00.615Z,23.10
2018-06-08T06:10:05.447Z,23.10
2018-06-08T06:11:09.945Z,23.10
2018-06-08T06:12:13.356Z,23.10
2018-06-08T06:13:16.775Z,23.10
2018-06-08T06:14:20.164Z,23.10
2018-06-08T06:15:24.923Z,23.10
2018-06-08T06:16:29.083Z,23.10
2018-06-08T06:17:32.459Z,23.10
2018-06-08T06:18:35.872Z,23.10
2018-06-08T06:21:46.716Z,23.20
2018-06-08T06:22:50.109Z,23.20
2018-06-08T06:23:53.512Z,23.30
2018-06-08T06:24:56.903Z,23.30
2018-06-08T06:26:01.347Z,23.30
2018-06-08T06:27:04.755Z,23.40
2018-06-08T06:28:08.148Z,23.40
2018-06-08T06:29:11.563Z,23.40
2018-06-08T06:30:16.065Z,23.50
2018-06-08T06:31:20.601Z,23.50
2018-06-08T06:32:24.081Z,23.50
2018-06-08T06:33:27.439Z,23.50
2018-06-08T06:34:30.827Z,23.50
2018-06-08T06:35:35.251Z,23.50
2018-06-08T06:37:41.769Z,23.50
2018-06-08T06:38:45.163Z,23.50
2018-06-08T06:39:48.561Z,23.50
2018-06-08T06:40:53.013Z,23.50
2018-06-08T06:41:56.431Z,23.50
2018-06-08T06:42:59.815Z,23.50
2018-06-08T06:44:03.226Z,23.50
2018-06-08T06:45:08.429Z,23.50
2018-06-08T06:46:12.826Z,23.60
2018-06-08T06:47:16.263Z,23.60
2018-06-08T06:48:19.663Z,23.60
2018-06-08T06:49:23.051Z,23.60
2018-06-08T06:50:28.713Z,23.60
2018-06-08T06:51:32.619Z,23.60
2018-06-08T06:53:39.112Z,23.70
2018-06-08T06:54:42.499Z,23.70
2018-06-08T06:55:47.763Z,23.70
2018-06-08T06:56:51.215Z,23.70
2018-06-08T06:57:54.595Z,23.70
2018-06-08T06:58:57.995Z,23.70
2018-06-08T07:00:01.388Z,23.70
2018-06-08T07:01:06.732Z,23.80
2018-06-08T07:03:13.247Z,23.80
2018-06-08T07:04:16.647Z,23.80
2018-06-08T07:05:21.070Z,23.70
2018-06-08T07:07:28.089Z,23.70
2018-06-08T07:08:31.475Z,23.70
2018-06-08T07:10:39.094Z,23.70
2018-06-08T07:11:42.520Z,23.80
2018-06-08T07:12:45.966Z,23.80
2018-06-08T07:13:49.347Z,23.80
2018-06-08T07:14:52.740Z,23.80
2018-06-08T07:15:57.149Z,23.80
2018-06-08T07:17:00.575Z,23.80
2018-06-08T07:18:04.101Z,23.80
2018-06-08T07:19:07.495Z,23.80
2018-06-08T07:20:11.980Z,23.90
2018-06-08T07:21:16.509Z,23.90
2018-06-08T07:22:21.039Z,23.90
2018-06-08T07:24:27.527Z,23.80
2018-06-08T07:25:31.885Z,23.80
2018-06-08T07:28:41.501Z,23.80
2018-06-08T07:29:44.880Z,23.80
2018-06-08T07:30:49.337Z,23.80
2018-06-08T07:31:52.856Z,23.80
2018-06-08T07:32:56.160Z,23.90
2018-06-08T07:33:59.587Z,23.90
2018-06-08T07:35:03.230Z,23.90
2018-06-08T07:36:07.692Z,23.90
2018-06-08T07:37:11.095Z,23.90
2018-06-08T07:38:14.479Z,23.90
2018-06-08T07:40:22.256Z,24.00
2018-06-08T07:41:26.500Z,24.00
2018-06-08T07:42:29.912Z,24.00
2018-06-08T07:43:33.303Z,24.00
2018-06-08T07:44:36.711Z,24.10
2018-06-08T07:45:41.135Z,24.10
2018-06-08T07:46:44.611Z,24.20
2018-06-08T07:47:47.975Z,24.20
2018-06-08T07:48:51.359Z,24.30
2018-06-08T07:49:54.767Z,24.30
2018-06-08T07:50:59.263Z,24.40
2018-06-08T07:53:05.829Z,24.40
2018-06-08T07:54:09.228Z,24.50
2018-06-08T07:55:13.637Z,24.50
2018-06-08T07:57:21.124Z,24.50
2018-06-08T07:58:24.519Z,24.50
2018-06-08T07:59:27.940Z,24.50
2018-06-08T08:00:32.420Z,24.50
2018-06-08T08:01:35.837Z,24.50
2018-06-08T08:02:39.282Z,24.50
2018-06-08T08:03:42.682Z,24.50
2018-06-08T08:04:46.086Z,24.50
2018-06-08T08:06:53.449Z,24.40
2018-06-08T08:07:56.843Z,24.40
2018-06-08T08:09:00.291Z,24.30
2018-06-08T08:10:03.715Z,24.30
2018-06-08T08:11:08.797Z,24.20
2018-06-08T08:12:12.227Z,24.20
2018-06-08T08:13:15.615Z,24.10
2018-06-08T08:14:19.015Z,24.10
2018-06-08T08:15:23.626Z,24.10
2018-06-08T08:16:28.183Z,24.10
2018-06-08T08:17:31.607Z,24.20
2018-06-08T08:18:35.003Z,24.20
2018-06-08T08:19:38.387Z,24.20
2018-06-08T08:20:42.914Z,24.30
2018-06-08T08:21:46.343Z,24.30
2018-06-08T08:22:49.744Z,24.30
2018-06-08T08:23:53.135Z,24.40
2018-06-08T08:24:56.536Z,24.40
2018-06-08T08:26:00.998Z,24.30
2018-06-08T08:27:04.485Z,24.30
2018-06-08T08:28:07.910Z,24.20
2018-06-08T08:29:11.319Z,24.10
2018-06-08T08:30:16.389Z,24.10
2018-06-08T08:31:20.879Z,24.00
2018-06-08T08:32:24.286Z,24.00
2018-06-08T08:33:27.700Z,24.00
2018-06-08T08:34:31.088Z,23.90
2018-06-08T08:35:35.643Z,23.90
2018-06-08T08:36:39.076Z,23.90
2018-06-08T08:37:42.463Z,23.90
2018-06-08T08:38:45.855Z,23.80
2018-06-08T08:39:49.238Z,23.80
2018-06-08T08:40:53.928Z,23.80
2018-06-08T08:41:57.379Z,23.80
2018-06-08T08:43:00.808Z,23.70
2018-06-08T08:44:04.800Z,23.60
2018-06-08T08:45:09.511Z,23.60
2018-06-08T08:46:14.048Z,23.50
2018-06-08T08:47:18.051Z,23.40
2018-06-08T08:48:21.444Z,23.40
2018-06-08T08:49:24.836Z,23.40
2018-06-08T08:50:29.649Z,23.30
2018-06-08T08:51:33.170Z,23.30
2018-06-08T08:52:36.497Z,23.30
2018-06-08T08:53:39.887Z,23.30
2018-06-08T08:54:43.272Z,23.30
2018-06-08T08:55:49.101Z,23.30
2018-06-08T08:56:52.545Z,23.20
2018-06-08T08:57:56.263Z,23.20
2018-06-08T09:00:02.772Z,23.10
2018-06-08T09:01:07.707Z,23.10
2018-06-08T09:02:11.139Z,23.10
2018-06-08T09:04:17.637Z,23.00
2018-06-08T09:05:22.021Z,22.90
2018-06-08T09:06:26.406Z,22.90
2018-06-08T09:07:30.005Z,22.80
2018-06-08T09:08:33.413Z,22.80
2018-06-08T09:10:41.741Z,22.80
2018-06-08T09:11:45.188Z,22.80
2018-06-08T09:12:48.587Z,22.80
2018-06-08T09:14:55.100Z,22.70
2018-06-08T09:15:59.723Z,22.70
2018-06-08T09:20:13.511Z,22.70
2018-06-08T09:21:18.634Z,22.70
2018-06-08T09:22:22.044Z,22.70
2018-06-08T09:23:25.475Z,22.70
2018-06-08T09:24:28.903Z,22.70
2018-06-08T09:25:36.608Z,22.70
2018-06-08T09:26:40.029Z,22.70
2018-06-08T09:27:43.428Z,22.70
2018-06-08T09:28:47.135Z,22.70
2018-06-08T09:29:50.564Z,22.60
2018-06-08T09:30:55.030Z,22.60
2018-06-08T09:31:58.451Z,22.60
2018-06-08T09:33:01.851Z,22.60
2018-06-08T09:34:05.279Z,22.60
2018-06-08T09:35:09.721Z,22.50
2018-06-08T09:36:14.243Z,22.40
2018-06-08T09:37:17.659Z,22.30
2018-06-08T09:38:21.084Z,22.30
2018-06-08T09:39:24.787Z,22.30
2018-06-08T09:40:29.110Z,22.30
2018-06-08T09:41:32.566Z,22.30
2018-06-08T09:42:35.973Z,22.30
2018-06-08T09:43:39.353Z,22.20
2018-06-08T09:44:42.759Z,22.20
2018-06-08T09:45:47.261Z,22.30
2018-06-08T09:46:50.712Z,22.30
2018-06-08T09:47:54.200Z,22.20
2018-06-08T09:48:57.587Z,22.20
2018-06-08T09:50:01.000Z,22.20
2018-06-08T09:51:05.405Z,22.20
2018-06-08T09:52:08.833Z,22.20
2018-06-08T09:53:12.219Z,22.20
2018-06-08T09:54:15.605Z,22.20
2018-06-08T09:55:20.213Z,22.20
2018-06-08T09:56:24.374Z,22.20
2018-06-08T09:57:27.772Z,22.20
2018-06-08T09:58:31.178Z,22.20
2018-06-08T09:59:34.587Z,22.20
2018-06-08T10:00:42.195Z,22.20
2018-06-08T10:01:45.616Z,22.30
2018-06-08T10:02:49.003Z,22.30
2018-06-08T10:03:52.416Z,22.30
2018-06-08T10:04:55.819Z,22.40
2018-06-08T10:05:59.227Z,22.30
2018-06-08T10:07:02.612Z,22.30
2018-06-08T10:08:06.499Z,22.30
2018-06-08T10:09:09.977Z,22.30
2018-06-08T10:10:13.913Z,22.30
2018-06-08T10:13:24.537Z,22.20
2018-06-08T10:14:27.975Z,22.20
2018-06-08T10:15:32.276Z,22.20
2018-06-08T10:17:38.804Z,22.10
2018-06-08T10:18:42.199Z,22.10
2018-06-08T10:19:45.584Z,22.10
2018-06-08T10:20:50.068Z,22.10
2018-06-08T10:21:53.955Z,22.10
2018-06-08T10:22:57.357Z,22.00
2018-06-08T10:24:00.743Z,22.00
2018-06-08T10:25:04.989Z,22.00
2018-06-08T10:27:12.467Z,22.00
2018-06-08T10:28:15.869Z,22.10
2018-06-08T10:29:19.269Z,22.10
2018-06-08T10:30:23.779Z,22.00
2018-06-08T10:31:28.349Z,22.00
2018-06-08T10:32:32.103Z,22.00
2018-06-08T10:33:35.515Z,22.00
2018-06-08T10:34:38.928Z,22.00
2018-06-08T10:35:43.373Z,22.00
2018-06-08T10:37:49.886Z,22.00
2018-06-08T10:38:53.271Z,22.00
2018-06-08T10:39:56.720Z,22.00
2018-06-08T10:41:01.260Z,22.00
2018-06-08T10:42:04.687Z,22.00
2018-06-08T10:43:08.095Z,22.10
2018-06-08T10:44:11.492Z,22.10
2018-06-08T10:46:20.321Z,22.20
2018-06-08T10:48:26.831Z,22.20
2018-06-08T10:49:30.216Z,22.30
2018-06-08T10:50:34.720Z,22.30
2018-06-08T10:51:38.164Z,22.40
2018-06-08T10:52:41.564Z,22.40
2018-06-08T10:53:44.980Z,22.40
2018-06-08T10:54:48.387Z,22.40
2018-06-08T10:55:52.741Z,22.50
2018-06-08T10:56:56.168Z,22.50
2018-06-08T10:57:59.584Z,22.50
2018-06-08T10:59:02.995Z,22.50
2018-06-08T11:00:07.578Z,22.50
2018-06-08T11:01:12.438Z,22.40
2018-06-08T11:02:15.839Z,22.30
2018-06-08T11:03:19.346Z,22.30
2018-06-08T11:04:22.730Z,22.30
2018-06-08T11:05:27.185Z,22.30
2018-06-08T11:06:30.872Z,22.30
2018-06-08T11:07:34.341Z,22.30
2018-06-08T11:09:40.852Z,22.30
2018-06-08T11:10:45.349Z,22.30
2018-06-08T11:11:48.767Z,22.30
2018-06-08T11:12:52.143Z,22.30
2018-06-08T11:13:55.553Z,22.20
2018-06-08T11:14:58.950Z,22.30
2018-06-08T11:16:03.407Z,22.20
2018-06-08T11:17:06.848Z,22.30
2018-06-08T11:18:10.236Z,22.30
2018-06-08T11:19:13.672Z,22.30
2018-06-08T11:20:18.288Z,22.30
2018-06-08T11:21:22.637Z,22.30
2018-06-08T11:22:26.047Z,22.30
2018-06-08T11:23:29.436Z,22.30
2018-06-08T11:24:32.851Z,22.30
2018-06-08T11:25:37.869Z,22.30
2018-06-08T11:26:41.291Z,22.30
2018-06-08T11:27:44.715Z,22.30
2018-06-08T11:28:48.123Z,22.20
2018-06-08T11:29:51.535Z,22.30
2018-06-08T11:30:56.160Z,22.30
2018-06-08T11:31:59.577Z,22.20
2018-06-08T11:33:02.978Z,22.20
2018-06-08T11:34:06.692Z,22.20
2018-06-08T11:35:11.366Z,22.20
2018-06-08T11:36:15.717Z,22.20
2018-06-08T11:37:19.125Z,22.20
2018-06-08T11:38:22.515Z,22.20
2018-06-08T11:39:25.941Z,22.20
2018-06-08T11:40:30.420Z,22.20
2018-06-08T11:41:33.845Z,22.20
2018-06-08T11:42:37.243Z,22.10
2018-06-08T11:43:40.628Z,22.20
2018-06-08T11:44:44.039Z,22.10
2018-06-08T11:45:48.997Z,22.10
2018-06-08T11:46:52.417Z,22.10
2018-06-08T11:47:55.813Z,22.10
2018-06-08T11:48:59.208Z,22.10
2018-06-08T11:50:02.624Z,22.10
2018-06-08T11:51:07.036Z,22.10
2018-06-08T11:52:10.449Z,22.10
2018-06-08T11:53:16.990Z,22.10
2018-06-08T11:54:20.379Z,22.10
2018-06-08T11:55:25.027Z,22.20
2018-06-08T11:56:29.175Z,22.20
2018-06-08T11:57:32.577Z,22.10
2018-06-08T11:58:35.975Z,22.10
2018-06-08T11:59:39.359Z,22.20
2018-06-08T12:00:43.780Z,22.20
2018-06-08T12:01:47.200Z,22.20
2018-06-08T12:02:50.611Z,22.30
2018-06-08T12:03:53.996Z,22.30
2018-06-08T12:04:57.395Z,22.30
2018-06-08T12:06:01.921Z,22.30
2018-06-08T12:07:05.384Z,22.40
2018-06-08T12:08:08.771Z,22.40
2018-06-08T12:09:12.339Z,22.40
2018-06-08T12:10:16.796Z,22.50
2018-06-08T12:11:21.730Z,22.50
2018-06-08T12:12:25.167Z,22.60
2018-06-08T12:13:28.568Z,22.70
2018-06-08T12:14:31.957Z,22.80
2018-06-08T12:15:36.241Z,22.80
2018-06-08T12:16:40.969Z,22.80
2018-06-08T12:17:44.389Z,22.80
2018-06-08T12:18:47.784Z,22.80
2018-06-08T12:19:51.168Z,22.80
2018-06-08T12:20:55.582Z,22.80
2018-06-08T12:21:59.011Z,22.80
2018-06-08T12:23:02.407Z,22.80
2018-06-08T12:24:05.875Z,22.80
2018-06-08T12:25:10.937Z,22.80
2018-06-08T12:27:18.336Z,22.90
2018-06-08T12:28:21.729Z,23.00
2018-06-08T12:29:25.111Z,23.00
2018-06-08T12:30:30.286Z,23.10
2018-06-08T12:31:33.685Z,23.10
2018-06-08T12:32:37.087Z,23.20
2018-06-08T12:34:43.552Z,23.50
2018-06-08T12:35:48.036Z,23.60
2018-06-08T12:36:51.459Z,23.70
2018-06-08T12:37:54.869Z,23.70
2018-06-08T12:38:58.296Z,23.80
2018-06-08T12:40:01.685Z,23.80
2018-06-08T12:41:06.015Z,23.90
2018-06-08T12:43:19.126Z,24.00
2018-06-08T12:44:22.542Z,24.10
2018-06-08T12:46:30.040Z,24.20
2018-06-08T12:47:33.435Z,24.30
2018-06-08T12:48:36.843Z,24.30
2018-06-08T12:49:40.227Z,24.40
2018-06-08T12:50:45.368Z,24.40
2018-06-08T12:51:48.776Z,24.40
2018-06-08T12:52:52.178Z,24.50
2018-06-08T12:53:55.587Z,24.40
2018-06-08T12:54:58.978Z,24.30
2018-06-08T12:56:03.254Z,24.30
2018-06-08T12:57:06.673Z,24.30
2018-06-08T12:58:10.065Z,24.30
2018-06-08T12:59:13.500Z,24.20
2018-06-08T13:00:18.062Z,24.20
2018-06-08T13:01:23.011Z,24.20
2018-06-08T13:02:26.480Z,24.10
2018-06-08T13:03:29.880Z,24.00
2018-06-08T13:04:33.291Z,24.00
2018-06-08T13:05:37.843Z,24.00
2018-06-08T13:06:41.263Z,24.10
2018-06-08T13:07:44.643Z,24.10
2018-06-08T13:08:48.041Z,24.10
2018-06-08T13:09:51.810Z,24.10
2018-06-08T13:10:56.242Z,24.20
2018-06-08T13:11:59.659Z,24.20
2018-06-08T13:13:03.694Z,24.20
2018-06-08T13:14:07.083Z,24.20
2018-06-08T13:15:12.545Z,24.30
2018-06-08T13:16:17.419Z,24.30
2018-06-08T13:17:20.891Z,24.30
2018-06-08T13:18:24.287Z,24.40
2018-06-08T13:19:27.675Z,24.50
2018-06-08T13:20:32.315Z,24.50
2018-06-08T13:21:35.740Z,24.60
2018-06-08T13:22:39.128Z,24.60
2018-06-08T13:23:42.551Z,24.60
2018-06-08T13:28:59.107Z,24.70
2018-06-08T13:30:02.553Z,24.70
2018-06-08T13:31:07.728Z,24.70
2018-06-08T13:32:11.145Z,24.80
2018-06-08T13:33:14.527Z,24.80
2018-06-08T13:34:18.103Z,24.70
2018-06-08T13:35:23.507Z,24.70
2018-06-08T13:36:27.927Z,24.70
2018-06-08T13:37:31.324Z,24.80
2018-06-08T13:38:34.711Z,24.80
2018-06-08T13:39:38.139Z,24.70
2018-06-08T13:40:42.624Z,24.70
2018-06-08T13:41:46.067Z,24.70
2018-06-08T13:42:49.459Z,24.70
2018-06-08T13:43:52.854Z,24.70
2018-06-08T13:44:56.248Z,24.70
2018-06-08T13:46:01.061Z,24.60
2018-06-08T13:47:04.760Z,24.60
2018-06-08T13:48:08.147Z,24.60
2018-06-08T13:49:11.570Z,24.60
2018-06-08T13:50:16.601Z,24.60
2018-06-08T13:51:21.021Z,24.60
2018-06-08T13:52:24.468Z,24.60
2018-06-08T13:53:27.916Z,24.60
2018-06-08T13:54:31.295Z,24.60
2018-06-08T13:56:38.567Z,24.60
2018-06-08T13:59:48.139Z,24.60
2018-06-08T14:00:52.629Z,24.60
2018-06-08T14:01:56.041Z,24.60
2018-06-08T14:02:59.465Z,24.60
2018-06-08T14:04:02.864Z,24.60
2018-06-08T14:05:07.269Z,24.60
2018-06-08T14:06:11.832Z,24.60
2018-06-08T14:07:15.248Z,24.70
2018-06-08T14:08:18.683Z,24.80
2018-06-08T14:09:22.072Z,24.80
2018-06-08T14:10:26.645Z,24.90
2018-06-08T14:11:30.988Z,24.90
2018-06-08T14:12:34.415Z,25.00
2018-06-08T14:13:37.820Z,24.90
2018-06-08T14:14:41.207Z,24.90
2018-06-08T14:15:45.631Z,24.90
2018-06-08T14:16:49.047Z,24.80
2018-06-08T14:18:55.544Z,24.80
2018-06-08T14:19:58.931Z,24.80
2018-06-08T14:21:03.399Z,24.80
2018-06-08T14:22:06.815Z,24.80
2018-06-08T14:23:10.315Z,24.80
2018-06-08T14:24:13.872Z,24.80
2018-06-08T14:25:18.317Z,24.90
2018-06-08T14:26:22.718Z,24.90
2018-06-08T14:27:26.133Z,25.00
2018-06-08T14:28:29.718Z,25.00
2018-06-08T14:29:33.234Z,25.10
2018-06-08T14:30:38.938Z,25.20
2018-06-08T14:31:42.489Z,25.30
2018-06-08T14:33:49.025Z,25.30
2018-06-08T14:34:52.563Z,25.30
2018-06-08T14:35:58.091Z,25.20
2018-06-08T14:37:01.500Z,25.30
2018-06-08T14:38:04.899Z,25.40
2018-06-08T14:39:08.603Z,25.50
2018-06-08T14:40:13.815Z,25.70
2018-06-08T14:41:19.207Z,25.80
2018-06-08T14:42:22.632Z,25.90
2018-06-08T14:43:26.015Z,26.10
2018-06-08T14:44:29.409Z,26.20
2018-06-08T14:45:33.910Z,26.30
2018-06-08T14:46:37.344Z,26.30
2018-06-08T14:47:40.735Z,26.40
2018-06-08T14:48:44.170Z,26.40
2018-06-08T14:49:47.567Z,26.50
2018-06-08T14:50:52.038Z,26.50
2018-06-08T14:51:55.467Z,26.50
2018-06-08T14:52:58.867Z,26.50
2018-06-08T14:54:02.315Z,26.40
2018-06-08T14:55:06.712Z,26.30
2018-06-08T14:56:11.636Z,26.30
2018-06-08T14:57:15.059Z,26.30
2018-06-08T14:58:18.447Z,26.20
2018-06-08T14:59:21.936Z,26.20
2018-06-08T15:00:26.294Z,26.20